sensor_id;sensor_type;location;lat;lon;timestamp;pressure;altitude;pressure_sealevel;temperature;humidity
12475;BME280;6302;42.624;23.334;2022-12-07T00:01:25;93246.25;;;5.55;100.00
12475;BME280;6302;42.624;23.334;2022-12-07T00:03:54;93246.63;;;5.57;100.00
12475;BME280;6302;42.624;23.334;2022-12-07T00:06:23;93256.78;;;5.58;100.00
12475;BME280;6302;42.624;23.334;2022-12-07T00:08:50;93253.03;;;5.59;100.00
12475;BME280;6302;42.624;23.334;2022-12-07T00:11:22;93250.03;;;5.61;100.00
12475;BME280;6302;42.624;23.334;2022-12-07T00:13:51;93243.25;;;5.56;100.00
12475;BME280;6302;42.624;23.334;2022-12-07T00:16:19;93247.78;;;5.59;100.00
12475;BME280;6302;42.624;23.334;2022-12-07T00:18:47;93241.00;;;5.58;100.00
12475;BME280;6302;42.624;23.334;2022-12-07T00:21:16;93241.75;;;5.59;100.00
12475;BME280;6302;42.624;23.334;2022-12-07T00:23:45;93239.19;;;5.62;100.00
12475;BME280;6302;42.624;23.334;2022-12-07T00:26:14;93230.53;;;5.62;100.00
12475;BME280;6302;42.624;23.334;2022-12-07T00:28:44;93235.03;;;5.61;100.00
12475;BME280;6302;42.624;23.334;2022-12-07T00:31:12;93233.50;;;5.57;100.00
12475;BME280;6302;42.624;23.334;2022-12-07T00:33:39;93235.41;;;5.60;100.00
12475;BME280;6302;42.624;23.334;2022-12-07T00:36:08;93238.78;;;5.60;100.00
12475;BME280;6302;42.624;23.334;2022-12-07T00:38:36;93241.81;;;5.62;100.00
12475;BME280;6302;42.624;23.334;2022-12-07T00:41:08;93242.53;;;5.59;100.00
12475;BME280;6302;42.624;23.334;2022-12-07T00:43:35;93239.84;;;5.52;100.00
12475;BME280;6302;42.624;23.334;2022-12-07T00:46:02;93232.66;;;5.49;100.00
12475;BME280;6302;42.624;23.334;2022-12-07T00:48:29;93239.06;;;5.52;100.00
12475;BME280;6302;42.624;23.334;2022-12-07T00:50:56;93223.75;;;5.57;100.00
12475;BME280;6302;42.624;23.334;2022-12-07T00:53:23;93222.59;;;5.55;100.00
12475;BME280;6302;42.624;23.334;2022-12-07T00:55:50;93213.84;;;5.44;100.00
12475;BME280;6302;42.624;23.334;2022-12-07T00:58:19;93234.19;;;5.50;100.00
12475;BME280;6302;42.624;23.334;2022-12-07T01:00:46;93241.31;;;5.53;100.00
12475;BME280;6302;42.624;23.334;2022-12-07T01:03:14;93240.22;;;5.54;100.00
12475;BME280;6302;42.624;23.334;2022-12-07T01:05:49;93233.09;;;5.55;100.00
12475;BME280;6302;42.624;23.334;2022-12-07T01:08:16;93236.50;;;5.55;100.00
12475;BME280;6302;42.624;23.334;2022-12-07T01:10:43;93233.50;;;5.57;100.00
12475;BME280;6302;42.624;23.334;2022-12-07T01:13:09;93231.63;;;5.57;100.00
12475;BME280;6302;42.624;23.334;2022-12-07T01:15:40;93223.75;;;5.57;100.00
12475;BME280;6302;42.624;23.334;2022-12-07T01:18:07;93224.44;;;5.54;100.00
12475;BME280;6302;42.624;23.334;2022-12-07T01:20:34;93215.38;;;5.48;100.00
12475;BME280;6302;42.624;23.334;2022-12-07T01:23:01;93222.19;;;5.53;100.00
12475;BME280;6302;42.624;23.334;2022-12-07T01:25:28;93219.16;;;5.51;100.00
12475;BME280;6302;42.624;23.334;2022-12-07T01:27:55;93204.16;;;5.51;100.00
12475;BME280;6302;42.624;23.334;2022-12-07T01:30:22;93210.94;;;5.56;100.00
12475;BME280;6302;42.624;23.334;2022-12-07T01:32:50;93211.34;;;5.58;100.00
12475;BME280;6302;42.624;23.334;2022-12-07T01:35:16;93210.22;;;5.59;100.00
12475;BME280;6302;42.624;23.334;2022-12-07T01:37:43;93213.22;;;5.57;100.00
12475;BME280;6302;42.624;23.334;2022-12-07T01:40:11;93210.22;;;5.59;100.00
12475;BME280;6302;42.624;23.334;2022-12-07T01:42:37;93217.72;;;5.57;100.00
12475;BME280;6302;42.624;23.334;2022-12-07T01:45:38;93211.69;;;5.56;100.00
12475;BME280;6302;42.624;23.334;2022-12-07T01:48:08;93211.69;;;5.53;100.00
12475;BME280;6302;42.624;23.334;2022-12-07T01:50:37;93216.53;;;5.51;100.00
12475;BME280;6302;42.624;23.334;2022-12-07T01:53:06;93214.66;;;5.51;100.00
12475;BME280;6302;42.624;23.334;2022-12-07T01:55:38;93207.47;;;5.45;100.00
12475;BME280;6302;42.624;23.334;2022-12-07T01:58:06;93207.09;;;5.46;100.00
12475;BME280;6302;42.624;23.334;2022-12-07T02:00:33;93191.38;;;5.50;100.00
12475;BME280;6302;42.624;23.334;2022-12-07T02:03:04;93201.84;;;5.46;100.00
12475;BME280;6302;42.624;23.334;2022-12-07T02:05:35;93193.19;;;5.46;100.00
12475;BME280;6302;42.624;23.334;2022-12-07T02:08:04;93190.88;;;5.37;100.00
12475;BME280;6302;42.624;23.334;2022-12-07T02:10:31;93183.75;;;5.38;100.00
12475;BME280;6302;42.624;23.334;2022-12-07T02:13:01;93183.00;;;5.37;100.00
12475;BME280;6302;42.624;23.334;2022-12-07T02:15:36;93186.72;;;5.36;100.00
12475;BME280;6302;42.624;23.334;2022-12-07T02:18:09;93193.53;;;5.41;100.00
12475;BME280;6302;42.624;23.334;2022-12-07T02:20:50;93199.53;;;5.41;100.00
12475;BME280;6302;42.624;23.334;2022-12-07T02:23:40;93207.75;;;5.36;100.00
12475;BME280;6302;42.624;23.334;2022-12-07T02:29:17;93200.66;;;5.40;100.00
12475;BME280;6302;42.624;23.334;2022-12-07T02:31:55;93167.81;;;5.20;100.00
12475;BME280;6302;42.624;23.334;2022-12-07T02:34:31;93190.16;;;5.40;100.00
12475;BME280;6302;42.624;23.334;2022-12-07T02:37:02;93176.22;;;5.36;100.00
12475;BME280;6302;42.624;23.334;2022-12-07T02:39:37;93179.97;;;5.35;100.00
12475;BME280;6302;42.624;23.334;2022-12-07T02:42:12;93173.59;;;5.36;100.00
12475;BME280;6302;42.624;23.334;2022-12-07T02:44:42;93173.91;;;5.31;100.00
12475;BME280;6302;42.624;23.334;2022-12-07T02:47:12;93177.34;;;5.35;100.00
12475;BME280;6302;42.624;23.334;2022-12-07T02:49:41;93181.84;;;5.35;100.00
12475;BME280;6302;42.624;23.334;2022-12-07T02:52:08;93181.84;;;5.35;100.00
12475;BME280;6302;42.624;23.334;2022-12-07T02:54:35;93186.72;;;5.36;100.00
12475;BME280;6302;42.624;23.334;2022-12-07T02:57:07;93183.72;;;5.34;100.00
12475;BME280;6302;42.624;23.334;2022-12-07T02:59:50;93183.72;;;5.34;100.00
12475;BME280;6302;42.624;23.334;2022-12-07T03:02:25;93179.16;;;5.31;100.00
12475;BME280;6302;42.624;23.334;2022-12-07T03:05:03;93164.53;;;5.30;100.00
12475;BME280;6302;42.624;23.334;2022-12-07T03:07:41;93157.00;;;5.28;100.00
12475;BME280;6302;42.624;23.334;2022-12-07T03:10:14;93168.63;;;5.28;100.00
12475;BME280;6302;42.624;23.334;2022-12-07T03:13:00;93158.47;;;5.26;100.00
12475;BME280;6302;42.624;23.334;2022-12-07T03:15:33;93160.75;;;5.28;100.00
12475;BME280;6302;42.624;23.334;2022-12-07T03:18:04;93145.31;;;5.22;100.00
12475;BME280;6302;42.624;23.334;2022-12-07T03:20:32;93154.34;;;5.25;100.00
12475;BME280;6302;42.624;23.334;2022-12-07T03:23:03;93147.88;;;5.15;100.00
12475;BME280;6302;42.624;23.334;2022-12-07T03:25:32;93159.94;;;5.20;100.00
12475;BME280;6302;42.624;23.334;2022-12-07T03:28:02;93159.53;;;5.18;100.00
12475;BME280;6302;42.624;23.334;2022-12-07T03:30:36;93158.03;;;5.17;100.00
12475;BME280;6302;42.624;23.334;2022-12-07T03:33:08;93159.50;;;5.14;100.00
12475;BME280;6302;42.624;23.334;2022-12-07T03:35:40;93163.28;;;5.17;100.00
12475;BME280;6302;42.624;23.334;2022-12-07T03:38:15;93162.09;;;5.11;100.00
12475;BME280;6302;42.624;23.334;2022-12-07T03:40:47;93156.44;;;5.09;100.00
12475;BME280;6302;42.624;23.334;2022-12-07T03:43:17;93142.00;;;4.92;100.00
12475;BME280;6302;42.624;23.334;2022-12-07T03:45:56;93158.28;;;5.05;100.00
12475;BME280;6302;42.624;23.334;2022-12-07T03:48:32;93144.97;;;4.87;100.00
12475;BME280;6302;42.624;23.334;2022-12-07T03:51:07;93158.22;;;4.98;100.00
12475;BME280;6302;42.624;23.334;2022-12-07T03:53:41;93156.72;;;5.00;100.00
12475;BME280;6302;42.624;23.334;2022-12-07T03:56:09;93157.50;;;5.01;100.00
12475;BME280;6302;42.624;23.334;2022-12-07T03:58:38;93154.09;;;5.00;100.00
12475;BME280;6302;42.624;23.334;2022-12-07T04:01:06;93141.75;;;5.01;100.00
12475;BME280;6302;42.624;23.334;2022-12-07T04:03:33;93142.47;;;5.01;100.00
12475;BME280;6302;42.624;23.334;2022-12-07T04:06:00;93147.78;;;5.05;100.00
12475;BME280;6302;42.624;23.334;2022-12-07T04:08:27;93155.25;;;5.03;100.00
12475;BME280;6302;42.624;23.334;2022-12-07T04:10:54;93151.09;;;5.02;100.00
12475;BME280;6302;42.624;23.334;2022-12-07T04:13:21;93145.47;;;5.00;100.00
12475;BME280;6302;42.624;23.334;2022-12-07T04:15:47;93150.41;;;5.05;100.00
12475;BME280;6302;42.624;23.334;2022-12-07T04:18:16;93134.13;;;4.89;100.00
12475;BME280;6302;42.624;23.334;2022-12-07T04:20:42;93150.41;;;5.05;100.00
12475;BME280;6302;42.624;23.334;2022-12-07T04:23:09;93157.50;;;5.04;100.00
12475;BME280;6302;42.624;23.334;2022-12-07T04:25:36;93151.91;;;5.06;100.00
12475;BME280;6302;42.624;23.334;2022-12-07T04:28:03;93144.38;;;5.01;100.00
12475;BME280;6302;42.624;23.334;2022-12-07T04:30:30;93138.69;;;4.99;100.00
12475;BME280;6302;42.624;23.334;2022-12-07T04:32:57;93148.88;;;5.04;100.00
12475;BME280;6302;42.624;23.334;2022-12-07T04:35:25;93163.53;;;5.05;100.00
12475;BME280;6302;42.624;23.334;2022-12-07T04:37:52;93151.88;;;5.02;100.00
12475;BME280;6302;42.624;23.334;2022-12-07T04:40:19;93152.63;;;5.03;100.00
12475;BME280;6302;42.624;23.334;2022-12-07T04:42:45;93145.78;;;4.91;100.00
12475;BME280;6302;42.624;23.334;2022-12-07T04:45:12;93129.84;;;4.77;100.00
12475;BME280;6302;42.624;23.334;2022-12-07T04:47:39;93166.09;;;4.98;100.00
12475;BME280;6302;42.624;23.334;2022-12-07T04:50:07;93169.81;;;4.97;100.00
12475;BME280;6302;42.624;23.334;2022-12-07T04:52:35;93164.56;;;4.97;100.00
12475;BME280;6302;42.624;23.334;2022-12-07T04:55:02;93168.66;;;4.94;100.00
12475;BME280;6302;42.624;23.334;2022-12-07T04:57:28;93162.25;;;4.92;100.00
12475;BME280;6302;42.624;23.334;2022-12-07T04:59:55;93169.78;;;4.93;100.00
12475;BME280;6302;42.624;23.334;2022-12-07T05:02:22;93162.25;;;4.92;100.00
12475;BME280;6302;42.624;23.334;2022-12-07T05:04:49;93155.50;;;4.91;100.00
12475;BME280;6302;42.624;23.334;2022-12-07T05:07:15;93162.94;;;4.85;100.00
12475;BME280;6302;42.624;23.334;2022-12-07T05:09:45;93160.69;;;4.84;100.00
12475;BME280;6302;42.624;23.334;2022-12-07T05:12:12;93154.66;;;4.83;100.00
12475;BME280;6302;42.624;23.334;2022-12-07T05:14:39;93158.78;;;4.81;100.00
12475;BME280;6302;42.624;23.334;2022-12-07T05:17:05;93159.88;;;4.80;100.00
12475;BME280;6302;42.624;23.334;2022-12-07T05:19:32;93171.19;;;4.84;100.00
12475;BME280;6302;42.624;23.334;2022-12-07T05:21:59;93174.13;;;4.79;100.00
12475;BME280;6302;42.624;23.334;2022-12-07T05:24:26;93165.84;;;4.77;100.00
12475;BME280;6302;42.624;23.334;2022-12-07T05:26:54;93165.50;;;4.78;100.00
12475;BME280;6302;42.624;23.334;2022-12-07T05:29:20;93166.66;;;4.81;100.00
12475;BME280;6302;42.624;23.334;2022-12-07T05:31:47;93155.25;;;4.70;100.00
12475;BME280;6302;42.624;23.334;2022-12-07T05:34:14;93164.03;;;4.81;100.00
12475;BME280;6302;42.624;23.334;2022-12-07T05:36:41;93143.25;;;4.69;100.00
12475;BME280;6302;42.624;23.334;2022-12-07T05:39:08;93152.38;;;4.82;100.00
12475;BME280;6302;42.624;23.334;2022-12-07T05:41:35;93159.09;;;4.79;100.00
12475;BME280;6302;42.624;23.334;2022-12-07T05:44:24;93148.91;;;4.71;100.00
12475;BME280;6302;42.624;23.334;2022-12-07T05:46:50;93135.06;;;4.74;100.00
12475;BME280;6302;42.624;23.334;2022-12-07T05:49:17;93142.97;;;4.77;100.00
12475;BME280;6302;42.624;23.334;2022-12-07T05:51:44;93147.88;;;4.79;100.00
12475;BME280;6302;42.624;23.334;2022-12-07T05:54:11;93144.13;;;4.80;100.00
12475;BME280;6302;42.624;23.334;2022-12-07T05:56:38;93133.59;;;4.76;100.00
12475;BME280;6302;42.624;23.334;2022-12-07T05:59:04;93145.19;;;4.75;100.00
12475;BME280;6302;42.624;23.334;2022-12-07T06:01:50;93133.53;;;4.73;100.00
12475;BME280;6302;42.624;23.334;2022-12-07T06:04:17;93146.34;;;4.78;100.00
12475;BME280;6302;42.624;23.334;2022-12-07T06:06:44;93146.34;;;4.78;100.00
12475;BME280;6302;42.624;23.334;2022-12-07T06:09:11;93149.03;;;4.81;100.00
12475;BME280;6302;42.624;23.334;2022-12-07T06:11:39;93145.66;;;4.81;100.00
12475;BME280;6302;42.624;23.334;2022-12-07T06:14:24;93151.28;;;4.83;100.00
12475;BME280;6302;42.624;23.334;2022-12-07T06:16:52;93155.38;;;4.80;100.00
12475;BME280;6302;42.624;23.334;2022-12-07T06:19:19;93157.75;;;4.89;100.00
12475;BME280;6302;42.624;23.334;2022-12-07T06:21:46;93148.72;;;4.86;100.00
12475;BME280;6302;42.624;23.334;2022-12-07T06:24:13;93161.94;;;4.97;100.00
12475;BME280;6302;42.624;23.334;2022-12-07T06:26:40;93168.38;;;5.03;100.00
12475;BME280;6302;42.624;23.334;2022-12-07T06:29:07;93166.94;;;5.09;100.00
12475;BME280;6302;42.624;23.334;2022-12-07T06:31:35;93172.59;;;5.11;100.00
12475;BME280;6302;42.624;23.334;2022-12-07T06:34:05;93171.47;;;5.12;100.00
12475;BME280;6302;42.624;23.334;2022-12-07T06:36:33;93168.16;;;5.18;100.00
12475;BME280;6302;42.624;23.334;2022-12-07T06:39:00;93168.56;;;5.20;100.00
12475;BME280;6302;42.624;23.334;2022-12-07T06:41:26;93163.00;;;5.25;100.00
12475;BME280;6302;42.624;23.334;2022-12-07T06:43:53;93162.63;;;5.27;100.00
12475;BME280;6302;42.624;23.334;2022-12-07T06:46:20;93153.47;;;5.10;100.00
12475;BME280;6302;42.624;23.334;2022-12-07T06:48:47;93170.13;;;5.25;100.00
12475;BME280;6302;42.624;23.334;2022-12-07T06:51:16;93180.63;;;5.25;100.00
12475;BME280;6302;42.624;23.334;2022-12-07T06:53:42;93173.53;;;5.29;100.00
12475;BME280;6302;42.624;23.334;2022-12-07T06:56:09;93184.47;;;5.35;100.00
12475;BME280;6302;42.624;23.334;2022-12-07T06:58:36;93176.16;;;5.29;100.00
12475;BME280;6302;42.624;23.334;2022-12-07T07:01:08;93168.16;;;5.18;100.00
12475;BME280;6302;42.624;23.334;2022-12-07T07:03:35;93170.19;;;5.32;100.00
12475;BME280;6302;42.624;23.334;2022-12-07T07:06:02;93170.25;;;5.39;100.00
12475;BME280;6302;42.624;23.334;2022-12-07T07:08:30;93178.50;;;5.38;100.00
12475;BME280;6302;42.624;23.334;2022-12-07T07:10:57;93182.50;;;5.24;100.00
12475;BME280;6302;42.624;23.334;2022-12-07T07:13:24;93173.91;;;5.28;100.00
12475;BME280;6302;42.624;23.334;2022-12-07T07:15:51;93171.69;;;5.33;100.00
12475;BME280;6302;42.624;23.334;2022-12-07T07:18:18;93167.69;;;5.46;100.00
12475;BME280;6302;42.624;23.334;2022-12-07T07:20:44;93162.78;;;5.45;100.00
12475;BME280;6302;42.624;23.334;2022-12-07T07:23:11;93177.63;;;5.26;100.00
12475;BME280;6302;42.624;23.334;2022-12-07T07:25:39;93177.63;;;5.26;100.00
12475;BME280;6302;42.624;23.334;2022-12-07T07:28:06;93173.91;;;5.28;100.00
12475;BME280;6302;42.624;23.334;2022-12-07T07:30:33;93187.78;;;5.28;100.00
12475;BME280;6302;42.624;23.334;2022-12-07T07:33:01;93185.16;;;5.28;100.00
12475;BME280;6302;42.624;23.334;2022-12-07T07:35:30;93190.81;;;5.30;100.00
12475;BME280;6302;42.624;23.334;2022-12-07T07:37:57;93201.06;;;5.42;100.00
12475;BME280;6302;42.624;23.334;2022-12-07T07:40:24;93190.63;;;5.49;100.00
12475;BME280;6302;42.624;23.334;2022-12-07T07:42:54;93193.25;;;5.49;100.00
12475;BME280;6302;42.624;23.334;2022-12-07T07:45:22;93192.19;;;5.57;100.00
12475;BME280;6302;42.624;23.334;2022-12-07T07:47:49;93182.50;;;5.65;100.00
12475;BME280;6302;42.624;23.334;2022-12-07T07:50:16;93188.53;;;5.69;100.00
12475;BME280;6302;42.624;23.334;2022-12-07T07:52:44;93183.72;;;5.78;100.00
12475;BME280;6302;42.624;23.334;2022-12-07T07:55:11;93187.47;;;5.77;100.00
12475;BME280;6302;42.624;23.334;2022-12-07T07:57:39;93184.78;;;5.70;100.00
12475;BME280;6302;42.624;23.334;2022-12-07T08:00:12;93172.66;;;5.55;100.00
12475;BME280;6302;42.624;23.334;2022-12-07T08:02:39;93185.97;;;5.76;100.00
12475;BME280;6302;42.624;23.334;2022-12-07T08:05:07;93188.16;;;5.70;100.00
12475;BME280;6302;42.624;23.334;2022-12-07T08:07:34;93185.13;;;5.68;100.00
12475;BME280;6302;42.624;23.334;2022-12-07T08:10:02;93184.78;;;5.70;100.00
12475;BME280;6302;42.624;23.334;2022-12-07T08:12:29;93187.81;;;5.72;100.00
12475;BME280;6302;42.624;23.334;2022-12-07T08:14:56;93185.09;;;5.61;100.00
12475;BME280;6302;42.624;23.334;2022-12-07T08:17:24;93180.59;;;5.65;100.00
12475;BME280;6302;42.624;23.334;2022-12-07T08:19:51;93192.75;;;5.80;100.00
12475;BME280;6302;42.624;23.334;2022-12-07T08:22:17;93184.97;;;5.87;100.00
12475;BME280;6302;42.624;23.334;2022-12-07T08:24:44;93169.56;;;5.89;100.00
12475;BME280;6302;42.624;23.334;2022-12-07T08:27:11;93187.31;;;6.03;100.00
12475;BME280;6302;42.624;23.334;2022-12-07T08:29:38;93187.38;;;6.07;100.00
12475;BME280;6302;42.624;23.334;2022-12-07T08:32:05;93168.91;;;6.03;100.00
12475;BME280;6302;42.624;23.334;2022-12-07T08:34:33;93178.84;;;6.24;100.00
12475;BME280;6302;42.624;23.334;2022-12-07T08:37:00;93170.22;;;6.27;100.00
12475;BME280;6302;42.624;23.334;2022-12-07T08:39:27;93180.06;;;6.37;100.00
12475;BME280;6302;42.624;23.334;2022-12-07T08:41:54;93183.06;;;6.39;100.00
12475;BME280;6302;42.624;23.334;2022-12-07T08:44:21;93180.09;;;6.44;100.00
12475;BME280;6302;42.624;23.334;2022-12-07T08:46:49;93177.09;;;6.49;100.00
12475;BME280;6302;42.624;23.334;2022-12-07T08:49:21;93146.88;;;6.22;100.00
12475;BME280;6302;42.624;23.334;2022-12-07T08:51:52;93174.78;;;6.37;100.00
12475;BME280;6302;42.624;23.334;2022-12-07T08:54:19;93165.00;;;6.34;100.00
12475;BME280;6302;42.624;23.334;2022-12-07T08:56:47;93169.59;;;6.54;100.00
12475;BME280;6302;42.624;23.334;2022-12-07T08:59:17;93172.28;;;6.65;100.00
12475;BME280;6302;42.624;23.334;2022-12-07T09:01:45;93172.69;;;6.74;100.00
12475;BME280;6302;42.624;23.334;2022-12-07T09:04:12;93162.22;;;6.85;100.00
12475;BME280;6302;42.624;23.334;2022-12-07T09:06:40;93169.75;;;6.90;100.00
12475;BME280;6302;42.624;23.334;2022-12-07T09:09:09;93137.00;;;6.80;100.00
12475;BME280;6302;42.624;23.334;2022-12-07T09:11:37;93154.34;;;6.99;100.00
12475;BME280;6302;42.624;23.334;2022-12-07T09:14:04;93155.88;;;7.03;100.00
12475;BME280;6302;42.624;23.334;2022-12-07T09:16:31;93157.03;;;7.06;100.00
12475;BME280;6302;42.624;23.334;2022-12-07T09:18:58;93143.09;;;7.05;100.00
12475;BME280;6302;42.624;23.334;2022-12-07T09:21:28;93115.16;;;6.76;100.00
12475;BME280;6302;42.624;23.334;2022-12-07T09:23:58;93148.34;;;7.05;100.00
12475;BME280;6302;42.624;23.334;2022-12-07T09:26:26;93124.28;;;7.03;100.00
12475;BME280;6302;42.624;23.334;2022-12-07T09:28:53;93143.50;;;7.18;100.00
12475;BME280;6302;42.624;23.334;2022-12-07T09:31:19;93142.00;;;7.20;100.00
12475;BME280;6302;42.624;23.334;2022-12-07T09:33:46;93148.41;;;7.27;100.00
12475;BME280;6302;42.624;23.334;2022-12-07T09:36:13;93147.28;;;7.35;100.00
12475;BME280;6302;42.624;23.334;2022-12-07T09:38:40;93136.75;;;7.42;100.00
12475;BME280;6302;42.624;23.334;2022-12-07T09:41:07;93090.41;;;7.19;100.00
12475;BME280;6302;42.624;23.334;2022-12-07T09:43:36;93114.50;;;7.29;100.00
12475;BME280;6302;42.624;23.334;2022-12-07T09:46:05;93122.06;;;7.44;100.00
12475;BME280;6302;42.624;23.334;2022-12-07T09:48:34;93114.91;;;7.41;100.00
12475;BME280;6302;42.624;23.334;2022-12-07T09:51:02;93111.16;;;7.28;100.00
12475;BME280;6302;42.624;23.334;2022-12-07T09:53:38;93102.13;;;7.47;100.00
12475;BME280;6302;42.624;23.334;2022-12-07T09:56:06;93116.06;;;7.58;100.00
12475;BME280;6302;42.624;23.334;2022-12-07T09:58:33;93111.91;;;7.53;100.00
12475;BME280;6302;42.624;23.334;2022-12-07T10:01:09;93114.53;;;7.64;100.00
12475;BME280;6302;42.624;23.334;2022-12-07T10:03:39;93111.53;;;7.76;100.00
12475;BME280;6302;42.624;23.334;2022-12-07T10:06:06;93108.13;;;7.61;100.00
12475;BME280;6302;42.624;23.334;2022-12-07T10:08:33;93112.66;;;7.61;100.00
12475;BME280;6302;42.624;23.334;2022-12-07T10:11:01;93082.53;;;7.37;100.00
12475;BME280;6302;42.624;23.334;2022-12-07T10:13:36;93102.88;;;7.58;100.00
12475;BME280;6302;42.624;23.334;2022-12-07T10:16:05;93097.97;;;7.60;100.00
12475;BME280;6302;42.624;23.334;2022-12-07T10:18:34;93105.88;;;7.74;100.00
12475;BME280;6302;42.624;23.334;2022-12-07T10:21:13;93102.13;;;7.82;100.00
12475;BME280;6302;42.624;23.334;2022-12-07T10:23:43;93116.44;;;7.92;100.00
12475;BME280;6302;42.624;23.334;2022-12-07T10:26:31;93102.06;;;8.03;100.00
12475;BME280;6302;42.624;23.334;2022-12-07T10:28:59;93068.19;;;7.95;100.00
12475;BME280;6302;42.624;23.334;2022-12-07T10:31:28;93086.22;;;8.21;100.00
12475;BME280;6302;42.624;23.334;2022-12-07T10:33:57;93088.09;;;8.34;100.00
12475;BME280;6302;42.624;23.334;2022-12-07T10:36:27;93067.31;;;8.43;100.00
12475;BME280;6302;42.624;23.334;2022-12-07T10:39:00;93056.72;;;8.47;100.00
12475;BME280;6302;42.624;23.334;2022-12-07T10:41:27;93068.81;;;8.44;100.00
12475;BME280;6302;42.624;23.334;2022-12-07T10:43:55;93071.41;;;8.55;100.00
12475;BME280;6302;42.624;23.334;2022-12-07T10:46:56;93044.28;;;8.51;100.00
12475;BME280;6302;42.624;23.334;2022-12-07T10:49:50;93068.03;;;8.47;100.00
12475;BME280;6302;42.624;23.334;2022-12-07T10:52:32;93061.63;;;8.45;100.00
12475;BME280;6302;42.624;23.334;2022-12-07T10:55:15;93036.78;;;8.39;100.00
12475;BME280;6302;42.624;23.334;2022-12-07T10:57:51;93048.53;;;8.17;100.00
12475;BME280;6302;42.624;23.334;2022-12-07T11:00:23;93041.69;;;8.23;100.00
12475;BME280;6302;42.624;23.334;2022-12-07T11:05:48;93037.94;;;8.24;100.00
12475;BME280;6302;42.624;23.334;2022-12-07T11:08:33;93034.19;;;8.28;100.00
12475;BME280;6302;42.624;23.334;2022-12-07T11:11:09;93013.03;;;8.35;100.00
12475;BME280;6302;42.624;23.334;2022-12-07T11:13:45;93031.00;;;8.62;100.00
12475;BME280;6302;42.624;23.334;2022-12-07T11:16:34;93026.78;;;8.75;100.00
12475;BME280;6302;42.624;23.334;2022-12-07T11:19:46;93035.41;;;8.86;100.00
12475;BME280;6302;42.624;23.334;2022-12-07T11:22:20;93021.81;;;8.91;100.00
12475;BME280;6302;42.624;23.334;2022-12-07T11:25:02;93022.47;;;9.02;100.00
12475;BME280;6302;42.624;23.334;2022-12-07T11:27:37;93023.94;;;9.10;100.00
12475;BME280;6302;42.624;23.334;2022-12-07T11:30:13;93018.59;;;9.17;100.00
12475;BME280;6302;42.624;23.334;2022-12-07T11:33:04;93009.13;;;9.23;100.00
12475;BME280;6302;42.624;23.334;2022-12-07T11:35:51;93016.94;;;9.37;100.00
12475;BME280;6302;42.624;23.334;2022-12-07T11:38:33;93010.06;;;9.47;100.00
12475;BME280;6302;42.624;23.334;2022-12-07T11:41:05;93002.47;;;9.52;100.00
12475;BME280;6302;42.624;23.334;2022-12-07T11:43:55;92993.28;;;9.60;100.00
12475;BME280;6302;42.624;23.334;2022-12-07T11:46:27;93003.66;;;9.44;100.00
12475;BME280;6302;42.624;23.334;2022-12-07T11:49:02;92995.00;;;9.40;100.00
12475;BME280;6302;42.624;23.334;2022-12-07T11:51:34;92991.97;;;9.38;100.00
12475;BME280;6302;42.624;23.334;2022-12-07T11:54:05;92988.59;;;9.38;100.00
12475;BME280;6302;42.624;23.334;2022-12-07T11:56:38;92982.41;;;9.55;100.00
12475;BME280;6302;42.624;23.334;2022-12-07T11:59:11;92987.84;;;9.78;100.00
12475;BME280;6302;42.624;23.334;2022-12-07T12:01:47;92988.59;;;9.78;100.00
12475;BME280;6302;42.624;23.334;2022-12-07T12:04:27;92983.22;;;9.86;100.00
12475;BME280;6302;42.624;23.334;2022-12-07T12:06:57;92985.41;;;9.94;100.00
12475;BME280;6302;42.624;23.334;2022-12-07T12:09:26;92982.22;;;10.10;100.00
12475;BME280;6302;42.624;23.334;2022-12-07T12:12:12;92986.72;;;10.16;100.00
12475;BME280;6302;42.624;23.334;2022-12-07T12:14:48;92988.97;;;10.18;100.00
12475;BME280;6302;42.624;23.334;2022-12-07T12:17:50;92985.53;;;10.21;100.00
12475;BME280;6302;42.624;23.334;2022-12-07T12:20:26;92972.09;;;10.35;100.00
12475;BME280;6302;42.624;23.334;2022-12-07T12:23:00;92971.84;;;10.56;100.00
12475;BME280;6302;42.624;23.334;2022-12-07T12:25:31;92942.38;;;10.54;100.00
12475;BME280;6302;42.624;23.334;2022-12-07T12:28:02;92952.03;;;10.64;100.00
12475;BME280;6302;42.624;23.334;2022-12-07T12:30:34;92951.31;;;10.64;100.00
12475;BME280;6302;42.624;23.334;2022-12-07T12:33:04;92953.22;;;10.63;100.00
12475;BME280;6302;42.624;23.334;2022-12-07T12:35:33;92934.94;;;10.42;100.00
12475;BME280;6302;42.624;23.334;2022-12-07T12:38:31;92953.88;;;10.40;100.00
12475;BME280;6302;42.624;23.334;2022-12-07T12:41:00;92943.41;;;10.30;100.00
12475;BME280;6302;42.624;23.334;2022-12-07T12:43:47;92944.38;;;10.13;100.00
12475;BME280;6302;42.624;23.334;2022-12-07T12:46:48;92950.63;;;10.29;100.00
12475;BME280;6302;42.624;23.334;2022-12-07T12:49:43;92937.34;;;10.33;100.00
12475;BME280;6302;42.624;23.334;2022-12-07T12:58:33;92948.25;;;10.65;100.00
12475;BME280;6302;42.624;23.334;2022-12-07T13:04:17;92951.44;;;10.53;100.00
12475;BME280;6302;42.624;23.334;2022-12-07T13:06:47;92951.00;;;10.58;100.00
12475;BME280;6302;42.624;23.334;2022-12-07T13:09:20;92939.97;;;10.63;100.00
12475;BME280;6302;42.624;23.334;2022-12-07T13:11:56;92932.25;;;10.72;100.00
12475;BME280;6302;42.624;23.334;2022-12-07T13:14:55;92944.09;;;10.64;100.00
12475;BME280;6302;42.624;23.334;2022-12-07T13:18:00;92960.44;;;10.59;100.00
12475;BME280;6302;42.624;23.334;2022-12-07T13:20:54;92954.50;;;10.52;100.00
12475;BME280;6302;42.624;23.334;2022-12-07T13:23:27;92957.88;;;10.52;100.00
12475;BME280;6302;42.624;23.334;2022-12-07T13:26:01;92939.09;;;10.43;100.00
12475;BME280;6302;42.624;23.334;2022-12-07T13:28:36;92953.78;;;10.48;100.00
12475;BME280;6302;42.624;23.334;2022-12-07T13:31:13;92950.75;;;10.49;100.00
12475;BME280;6302;42.624;23.334;2022-12-07T13:33:43;92957.09;;;10.55;100.00
12475;BME280;6302;42.624;23.334;2022-12-07T13:36:17;92941.44;;;10.64;100.00